Time;durP1;ratioP1;P1;durP2;ratioP2;P2;SDS_P1;SDS_P2;PMS_P1;PMS_P2;Temp;Humidity;BMP_temperature;BMP_pressure;BME280_temperature;BME280_humidity;BME280_pressure;Samples;Min_cycle;Max_cycle;Signal;HPM_P1;HPM_P2
2023/04/04 00:00:00;;;;;;;7.32;3.03;;;;;;;0.84;52.17;102381.34;685594;28;1086;-82
2023/04/04 00:00:21;;;;;;;4.95;3.08;;;;;;;0.79;52.11;102374.09;685613;28;1206;-81
2023/04/04 00:00:42;;;;;;;3.47;2.90;;;;;;;0.80;52.18;102381.03;685669;28;1060;-82
2023/04/04 00:01:02;;;;;;;3.27;2.80;;;;;;;0.88;52.11;102393.72;682756;29;1234;-82
2023/04/04 00:01:23;;;;;;;3.13;2.80;;;;;;;0.79;52.10;102379.22;685729;28;1181;-82
2023/04/04 00:01:44;;;;;;;3.20;2.70;;;;;;;0.78;52.03;102377.44;688323;28;1060;-82
2023/04/04 00:02:05;;;;;;;2.73;2.33;;;;;;;0.83;52.16;102389.81;685430;28;1114;-82
2023/04/04 00:02:25;;;;;;;2.70;2.50;;;;;;;0.72;52.13;102371.69;683048;29;895;-81
2023/04/04 00:02:47;;;;;;;2.80;2.60;;;;;;;0.87;52.23;102397.03;685597;28;1188;-82
2023/04/04 00:03:30;;;;;;;2.92;2.70;;;;;;;0.92;51.95;102390.69;682889;29;1073;-82
2023/04/04 00:03:51;;;;;;;4.10;2.80;;;;;;;0.83;52.04;102385.56;685487;28;1069;-82
2023/04/04 00:04:11;;;;;;;3.73;3.00;;;;;;;0.76;51.90;102371.25;688261;28;1188;-82
2023/04/04 00:04:32;;;;;;;3.50;2.80;;;;;;;0.81;52.22;102385.41;688293;28;1336;-82
2023/04/04 00:04:52;;;;;;;3.60;2.67;;;;;;;0.77;52.09;102380.75;688244;28;1118;-82
2023/04/04 00:05:13;;;;;;;3.70;2.60;;;;;;;0.79;52.11;102379.22;685589;28;1274;-81
2023/04/04 00:05:34;;;;;;;2.90;2.60;;;;;;;0.78;52.30;102380.00;688285;28;1093;-82
2023/04/04 00:05:55;;;;;;;5.47;2.90;;;;;;;0.76;52.43;102373.81;688295;28;1077;-81
2023/04/04 00:06:18;;;;;;;5.80;2.93;;;;;;;0.76;52.26;102384.09;682960;29;1036;-81
2023/04/04 00:06:43;;;;;;;5.13;3.20;;;;;;;0.78;52.14;102380.00;685506;28;1096;-82
2023/04/04 00:07:03;;;;;;;3.78;3.00;;;;;;;0.72;52.29;102374.28;688007;28;2066;-82
2023/04/04 00:07:24;;;;;;;3.08;2.75;;;;;;;0.73;52.46;102372.63;688422;28;748;-82
2023/04/04 00:07:46;;;;;;;3.30;2.42;;;;;;;0.72;52.25;102374.28;685400;28;1262;-82
2023/04/04 00:08:06;;;;;;;3.22;2.30;;;;;;;0.72;52.59;102374.28;688321;28;1128;-82
2023/04/04 00:08:27;;;;;;;4.17;2.53;;;;;;;0.74;52.24;102380.50;691068;28;815;-82
2023/04/04 00:08:47;;;;;;;3.70;2.67;;;;;;;0.70;52.41;102368.09;685537;28;1124;-82
2023/04/04 00:09:08;;;;;;;5.37;2.90;;;;;;;0.68;52.28;102369.63;688065;28;1099;-82
2023/04/04 00:09:29;;;;;;;5.20;2.90;;;;;;;0.72;52.41;102376.84;691001;28;1285;-81
2023/04/04 00:09:50;;;;;;;5.00;2.90;;;;;;;0.70;52.33;102373.22;688129;28;1125;-82
2023/04/04 00:10:10;;;;;;;3.53;2.90;;;;;;;0.72;52.25;102381.09;688187;28;1167;-82
2023/04/04 00:10:31;;;;;;;3.83;3.15;;;;;;;0.69;52.49;102371.44;682901;29;1970;-82
2023/04/04 00:10:58;;;;;;;4.70;3.23;;;;;;;0.66;52.67;102366.00;685583;28;1000;-82
2023/04/04 00:11:20;;;;;;;4.18;2.97;;;;;;;0.74;52.35;102389.84;682917;29;1885;-82
2023/04/04 00:11:41;;;;;;;3.00;2.70;;;;;;;0.74;52.59;102377.00;682785;28;1270;-82
2023/04/04 00:12:02;;;;;;;4.10;3.00;;;;;;;0.74;52.77;102387.28;685643;28;1040;-82
2023/04/04 00:12:23;;;;;;;4.00;2.97;;;;;;;0.63;52.55;102366.63;685612;28;1038;-81
2023/04/04 00:12:45;;;;;;;4.80;3.20;;;;;;;0.60;52.76;102361.16;685503;28;941;-81
2023/04/04 00:13:06;;;;;;;3.42;3.08;;;;;;;0.67;52.72;102367.81;685518;28;1210;-82
2023/04/04 00:13:27;;;;;;;3.38;2.97;;;;;;;0.63;52.75;102365.69;688239;28;929;-82
2023/04/04 00:13:48;;;;;;;3.15;2.85;;;;;;;0.64;52.33;102372.66;685584;28;1133;-81
2023/04/04 00:14:09;;;;;;;3.30;2.97;;;;;;;0.61;52.78;102364.66;685461;28;1259;-81
2023/04/04 00:14:30;;;;;;;3.25;2.95;;;;;;;0.62;52.71;102375.09;685625;28;1005;-82
2023/04/04 00:14:51;;;;;;;3.20;2.85;;;;;;;0.55;52.73;102356.38;685396;28;1079;-82
2023/04/04 00:15:12;;;;;;;6.47;3.00;;;;;;;0.62;52.58;102375.09;685561;28;961;-82
2023/04/04 00:15:34;;;;;;;7.45;3.30;;;;;;;0.59;52.90;102358.47;688360;28;1200;-82
2023/04/04 00:15:56;;;;;;;7.70;3.40;;;;;;;0.62;52.66;102369.03;685507;28;1102;-82
2023/04/04 00:16:16;;;;;;;4.20;3.03;;;;;;;0.63;52.68;102364.06;688387;28;1147;-82
2023/04/04 00:16:37;;;;;;;3.90;2.80;;;;;;;0.73;52.56;102386.34;684234;28;1178;-82
2023/04/04 00:16:57;;;;;;;3.75;2.70;;;;;;;0.60;52.73;102360.28;682633;29;1130;-82
2023/04/04 00:17:18;;;;;;;3.65;2.70;;;;;;;0.60;52.68;102373.13;682943;29;1362;-82
2023/04/04 00:17:38;;;;;;;3.60;2.60;;;;;;;0.58;52.52;102361.78;682855;29;1092;-82
2023/04/04 00:17:59;;;;;;;3.40;2.75;;;;;;;0.59;52.82;102369.66;683048;28;1011;-82
2023/04/04 00:18:20;;;;;;;3.30;3.00;;;;;;;0.61;53.05;102378.41;680232;29;1216;-82
2023/04/04 00:18:41;;;;;;;3.67;3.20;;;;;;;0.59;52.66;102379.03;677601;29;1086;-82
2023/04/04 00:19:02;;;;;;;5.23;3.40;;;;;;;0.62;53.00;102376.75;677611;29;958;-82
2023/04/04 00:19:23;;;;;;;5.18;3.20;;;;;;;0.64;52.81;102382.94;680248;29;1280;-82
2023/04/04 00:19:45;;;;;;;5.07;3.05;;;;;;;0.47;52.80;102359.13;680232;29;1064;-82
2023/04/04 00:20:06;;;;;;;3.88;3.03;;;;;;;0.55;52.78;102371.78;681595;28;1234;-82
2023/04/04 00:20:26;;;;;;;3.90;2.90;;;;;;;0.48;52.70;102366.06;680307;29;1260;-81
2023/04/04 00:20:47;;;;;;;4.50;3.08;;;;;;;0.60;52.85;102385.97;685463;28;1248;-82
2023/04/04 00:21:08;;;;;;;4.00;2.93;;;;;;;0.58;52.98;102382.34;682948;28;974;-82
2023/04/04 00:21:29;;;;;;;3.40;3.03;;;;;;;0.46;52.97;102359.88;685559;28;1277;-82
2023/04/04 00:21:50;;;;;;;3.63;2.90;;;;;;;0.46;52.81;102362.44;685600;28;1375;-82
2023/04/04 00:22:12;;;;;;;4.37;3.00;;;;;;;0.44;52.81;102361.41;685626;28;997;-82
2023/04/04 00:22:33;;;;;;;4.60;2.75;;;;;;;0.45;52.71;102365.78;682884;29;1231;-82
2023/04/04 00:22:53;;;;;;;3.92;2.90;;;;;;;0.44;52.94;102363.97;685605;28;1059;-82
2023/04/04 00:23:14;;;;;;;3.87;2.90;;;;;;;0.45;53.00;102365.78;691045;28;1060;-82
2023/04/04 00:23:34;;;;;;;4.13;3.00;;;;;;;0.53;52.83;102376.75;685562;28;1176;-82
2023/04/04 00:23:56;;;;;;;3.45;2.90;;;;;;;0.47;53.04;102371.97;685510;28;1148;-82
2023/04/04 00:24:16;;;;;;;3.40;2.83;;;;;;;0.43;53.20;102359.59;685694;28;993;-82
2023/04/04 00:24:37;;;;;;;3.25;2.95;;;;;;;0.45;52.97;102359.72;685569;28;1070;-82
2023/04/04 00:24:58;;;;;;;3.50;3.20;;;;;;;0.44;52.95;102361.41;682756;28;1194;-82
2023/04/04 00:25:18;;;;;;;3.70;3.30;;;;;;;0.49;52.92;102378.13;685690;28;1124;-82
2023/04/04 00:25:39;;;;;;;4.55;3.50;;;;;;;0.43;53.16;102362.16;682734;29;1313;-82
2023/04/04 00:26:00;;;;;;;4.97;3.63;;;;;;;0.43;53.07;102367.31;685618;28;1098;-82
2023/04/04 00:26:21;;;;;;;4.53;3.58;;;;;;;0.38;53.15;102369.44;688350;28;1215;-82
2023/04/04 00:26:42;;;;;;;4.72;3.40;;;;;;;0.45;53.13;102373.47;688135;28;1175;-82
2023/04/04 00:27:03;;;;;;;4.40;3.20;;;;;;;0.49;52.90;102387.53;685869;28;1319;-82
2023/04/04 00:27:23;;;;;;;3.80;3.10;;;;;;;0.39;53.04;102372.91;685675;28;1198;-82
2023/04/04 00:27:44;;;;;;;3.23;3.00;;;;;;;0.38;53.18;102369.44;685431;28;1116;-82
2023/04/04 00:28:04;;;;;;;3.83;3.17;;;;;;;0.40;53.30;102372.13;690925;28;1041;-82
2023/04/04 00:28:25;;;;;;;5.38;3.13;;;;;;;0.38;53.32;102369.44;685576;28;1275;-82
2023/04/04 00:28:58;;;;;;;6.00;3.10;;;;;;;0.39;53.20;102370.31;685360;28;1174;-82
2023/04/04 00:29:18;;;;;;;3.95;3.10;;;;;;;0.46;53.15;102385.56;685531;28;1303;-82
2023/04/04 00:29:39;;;;;;;3.30;3.00;;;;;;;0.35;53.51;102365.66;685248;28;1182;-82
2023/04/04 00:29:59;;;;;;;4.38;2.80;;;;;;;0.35;53.63;102369.13;680061;29;1178;-81
2023/04/04 00:30:20;;;;;;;4.03;2.60;;;;;;;0.37;53.24;102372.72;685185;28;1345;-82
2023/04/04 00:30:41;;;;;;;4.43;2.70;;;;;;;0.41;53.43;102384.22;688175;28;1976;-82
2023/04/04 00:31:02;;;;;;;3.85;3.10;;;;;;;0.33;53.42;102369.72;685519;28;1232;-82
2023/04/04 00:31:22;;;;;;;4.70;3.20;;;;;;;0.40;53.26;102382.41;682123;29;1247;-82
2023/04/04 00:31:43;;;;;;;4.22;3.20;;;;;;;0.39;53.19;102375.47;685484;28;1100;-81
2023/04/04 00:32:04;;;;;;;3.92;3.20;;;;;;;0.38;52.95;102371.09;685418;28;1312;-82
2023/04/04 00:32:24;;;;;;;3.80;3.40;;;;;;;0.37;53.53;102366.72;688314;28;1170;-82
2023/04/04 00:32:45;;;;;;;4.07;3.37;;;;;;;0.38;53.43;102373.66;682705;28;1169;-81
2023/04/04 00:33:06;;;;;;;4.10;3.28;;;;;;;0.36;53.14;102376.06;685610;28;1228;-82
2023/04/04 00:33:27;;;;;;;4.03;3.20;;;;;;;0.40;53.41;102392.69;688381;28;922;-82
2023/04/04 00:33:48;;;;;;;3.72;3.30;;;;;;;0.36;53.33;102381.22;688175;28;1174;-81
2023/04/04 00:34:08;;;;;;;3.80;3.30;;;;;;;0.28;53.36;102365.84;688207;28;1167;-82
2023/04/04 00:34:29;;;;;;;3.92;3.40;;;;;;;0.29;53.60;102373.66;685565;28;1161;-82
2023/04/04 00:34:53;;;;;;;4.00;3.10;;;;;;;0.33;53.64;102369.72;682884;29;1028;-81
2023/04/04 00:35:14;;;;;;;4.00;3.00;;;;;;;0.31;53.53;102376.41;682969;29;1032;-82
2023/04/04 00:35:34;;;;;;;4.40;2.80;;;;;;;0.27;53.44;102370.06;685518;28;1010;-82
2023/04/04 00:35:55;;;;;;;4.20;2.95;;;;;;;0.23;53.56;102361.16;682812;28;1058;-82
2023/04/04 00:36:16;;;;;;;4.73;3.20;;;;;;;0.29;53.48;102375.34;682820;28;1032;-80
2023/04/04 00:36:37;;;;;;;3.90;3.10;;;;;;;0.27;53.86;102369.16;682953;28;1119;-82
2023/04/04 00:36:57;;;;;;;3.60;3.10;;;;;;;0.33;53.74;102382.56;682624;29;1140;-82
2023/04/04 00:37:18;;;;;;;3.40;3.10;;;;;;;0.38;53.59;102389.06;682710;29;1098;-81
2023/04/04 00:37:38;;;;;;;4.53;3.10;;;;;;;0.32;53.93;102373.06;682712;28;1168;-82
2023/04/04 00:38:04;;;;;;;4.80;3.03;;;;;;;0.23;53.74;102363.72;683052;29;804;-82
2023/04/04 00:38:25;;;;;;;3.30;2.72;;;;;;;0.30;53.70;102377.16;682953;29;1151;-82
2023/04/04 00:38:45;;;;;;;3.00;2.70;;;;;;;0.23;53.73;102361.16;682890;28;1068;-82
2023/04/04 00:39:06;;;;;;;3.28;2.90;;;;;;;0.27;53.78;102374.31;679977;29;1344;-81
2023/04/04 00:39:27;;;;;;;3.70;2.88;;;;;;;0.22;53.73;102368.69;682756;29;839;-82
2023/04/04 00:39:48;;;;;;;3.67;2.90;;;;;;;0.25;53.57;102369.00;685460;28;1182;-82
2023/04/04 00:40:09;;;;;;;3.30;2.90;;;;;;;0.29;53.32;102383.06;688034;28;1073;-81
2023/04/04 00:40:30;;;;;;;3.13;2.83;;;;;;;0.20;53.93;102363.44;682849;29;1312;-82
2023/04/04 00:40:50;;;;;;;3.10;2.80;;;;;;;0.23;53.79;102376.56;680157;29;1157;-81
2023/04/04 00:41:11;;;;;;;3.30;3.00;;;;;;;0.30;53.86;102379.72;680409;29;1048;-82
2023/04/04 00:41:32;;;;;;;3.45;3.00;;;;;;;0.31;53.72;102385.03;682802;28;1303;-81
2023/04/04 00:41:53;;;;;;;2.97;2.63;;;;;;;0.32;53.72;102385.91;682786;29;1168;-81
2023/04/04 00:42:13;;;;;;;3.03;2.70;;;;;;;0.22;53.79;102361.91;682806;29;936;-82
2023/04/04 00:42:34;;;;;;;2.90;2.70;;;;;;;0.21;53.47;102365.25;685498;28;1337;-81
2023/04/04 00:42:56;;;;;;;3.40;3.10;;;;;;;0.21;53.83;102364.31;685574;28;1180;-82
2023/04/04 00:43:17;;;;;;;3.80;3.10;;;;;;;0.21;53.62;102370.38;685561;28;1406;-82
2023/04/04 00:43:39;;;;;;;4.93;3.30;;;;;;;0.22;53.66;102363.56;688099;28;1230;-82
2023/04/04 00:44:00;;;;;;;5.72;3.20;;;;;;;0.19;53.65;102365.84;685375;28;1039;-81
2023/04/04 00:44:21;;;;;;;4.35;3.10;;;;;;;0.18;54.03;102364.03;688117;28;1190;-82
2023/04/04 00:44:41;;;;;;;3.20;2.90;;;;;;;0.17;53.96;102363.13;685419;28;1149;-81
2023/04/04 00:45:05;;;;;;;3.77;3.17;;;;;;;0.16;53.76;102365.56;688352;28;815;-82
2023/04/04 00:45:26;;;;;;;5.05;3.10;;;;;;;0.22;53.91;102378.97;685588;28;1623;-82
2023/04/04 00:45:47;;;;;;;6.53;3.10;;;;;;;0.15;54.04;102369.78;690792;28;1235;-81
2023/04/04 00:46:10;;;;;;;6.60;3.00;;;;;;;0.24;54.10;102380.03;685484;28;1250;-81
2023/04/04 00:46:31;;;;;;;5.18;2.88;;;;;;;0.25;54.14;102380.16;688272;28;1215;-82
2023/04/04 00:46:52;;;;;;;3.53;2.60;;;;;;;0.20;54.21;102376.28;685266;28;1084;-82
2023/04/04 00:47:12;;;;;;;2.80;2.60;;;;;;;0.14;54.33;102354.22;680117;29;1183;-81
2023/04/04 00:47:33;;;;;;;2.90;2.60;;;;;;;0.26;53.98;102383.66;682848;29;1161;-82
2023/04/04 00:47:55;;;;;;;3.10;2.80;;;;;;;0.11;54.28;102363.44;685500;28;1263;-82
2023/04/04 00:48:15;;;;;;;2.83;2.63;;;;;;;0.18;54.14;102374.31;682798;29;984;-82
2023/04/04 00:48:36;;;;;;;2.90;2.70;;;;;;;0.16;54.08;102366.44;685588;28;1103;-82
2023/04/04 00:48:57;;;;;;;3.87;2.77;;;;;;;0.09;54.20;102356.34;685538;28;1135;-81
2023/04/04 00:49:17;;;;;;;4.35;2.97;;;;;;;0.13;54.08;102368.75;688308;28;985;-81
2023/04/04 00:49:38;;;;;;;4.00;2.70;;;;;;;0.12;54.20;102361.81;682865;29;1259;-82
2023/04/04 00:49:59;;;;;;;3.28;2.95;;;;;;;0.18;54.30;102371.75;688169;28;1160;-82
2023/04/04 00:50:19;;;;;;;3.30;3.00;;;;;;;0.16;54.23;102376.72;680272;29;1187;-82
2023/04/04 00:50:40;;;;;;;3.60;3.30;;;;;;;0.17;53.98;102367.38;685321;28;1922;-82
2023/04/04 00:51:01;;;;;;;6.30;3.30;;;;;;;0.14;54.34;102369.63;685676;28;1084;-81
2023/04/04 00:51:21;;;;;;;6.40;3.20;;;;;;;0.20;54.44;102376.28;688360;28;826;-81
2023/04/04 00:51:42;;;;;;;6.80;3.22;;;;;;;0.13;54.34;102361.03;682857;28;1082;-82
2023/04/04 00:52:05;;;;;;;3.30;3.00;;;;;;;0.14;54.52;102372.19;682836;29;1072;-82
2023/04/04 00:52:26;;;;;;;3.60;3.20;;;;;;;0.14;54.45;102365.41;682883;29;1415;-82
2023/04/04 00:52:47;;;;;;;4.03;3.17;;;;;;;0.19;54.25;102365.84;690861;28;1099;-82
2023/04/04 00:53:07;;;;;;;4.20;3.20;;;;;;;0.24;54.22;102383.50;685465;28;1211;-82
2023/04/04 00:53:28;;;;;;;3.80;2.90;;;;;;;0.19;54.44;102366.78;685735;28;1149;-82
2023/04/04 00:53:50;;;;;;;2.80;2.60;;;;;;;0.24;54.48;102386.06;685071;28;1248;-82
2023/04/04 00:54:10;;;;;;;2.90;2.70;;;;;;;0.22;54.27;102382.47;690908;28;1087;-82
2023/04/04 00:54:41;;;;;;;3.10;2.80;;;;;;;0.13;54.33;102363.59;688265;28;732;-82
2023/04/04 00:55:02;;;;;;;3.95;2.90;;;;;;;0.12;54.56;102365.25;688258;28;1095;-81
2023/04/04 00:55:24;;;;;;;3.60;3.00;;;;;;;0.16;54.31;102371.59;685687;28;831;-82
2023/04/04 00:55:45;;;;;;;3.33;2.97;;;;;;;0.10;54.48;102363.28;685490;28;1101;-82
2023/04/04 00:56:08;;;;;;;4.32;3.20;;;;;;;0.13;54.62;102363.59;688152;28;1300;-82
2023/04/04 00:56:31;;;;;;;4.60;3.00;;;;;;;0.13;54.35;102366.16;691027;28;807;-82
2023/04/04 00:56:54;;;;;;;5.57;2.92;;;;;;;0.22;54.75;102385.03;685288;28;1113;-82
2023/04/04 00:57:15;;;;;;;5.60;3.05;;;;;;;0.12;54.54;102369.50;687958;28;1253;-81
2023/04/04 00:57:36;;;;;;;5.53;3.30;;;;;;;0.08;54.59;102354.53;685578;28;1880;-82
2023/04/04 00:57:58;;;;;;;6.53;3.20;;;;;;;0.19;54.54;102378.69;685439;28;1078;-82
2023/04/04 00:58:19;;;;;;;6.80;3.20;;;;;;;0.06;54.37;102354.38;690897;28;1244;-81
2023/04/04 00:58:41;;;;;;;7.15;3.10;;;;;;;0.08;54.70;102363.16;687958;28;1480;-81
2023/04/04 00:59:02;;;;;;;5.40;3.00;;;;;;;0.16;54.80;102375.84;682366;29;1278;-82
2023/04/04 00:59:26;;;;;;;3.42;2.80;;;;;;;0.08;54.69;102363.16;683064;29;816;-82
2023/04/04 00:59:47;;;;;;;3.47;2.90;;;;;;;0.10;54.61;102366.78;682890;29;1065;-82
2023/04/04 01:00:09;;;;;;;3.30;2.80;;;;;;;0.15;54.74;102380.06;682562;29;1208;-82
2023/04/04 01:00:29;;;;;;;4.00;3.00;;;;;;;0.12;54.58;102374.63;682865;29;1455;-82
2023/04/04 01:00:50;;;;;;;4.22;3.00;;;;;;;0.07;54.67;102360.44;683857;28;1046;-81
2023/04/04 01:01:11;;;;;;;4.75;3.03;;;;;;;0.16;54.82;102376.72;685610;28;1119;-82
2023/04/04 01:01:32;;;;;;;4.68;2.92;;;;;;;0.11;54.73;102372.84;683526;28;800;-82
2023/04/04 01:01:53;;;;;;;3.58;2.80;;;;;;;0.10;54.62;102368.44;679609;29;1341;-81
2023/04/04 01:02:13;;;;;;;3.67;3.00;;;;;;;0.12;54.82;102372.97;680663;29;994;-82
2023/04/04 01:02:34;;;;;;;3.60;3.10;;;;;;;0.12;54.69;102370.38;680321;29;808;-81
2023/04/04 01:02:55;;;;;;;3.90;3.28;;;;;;;0.04;54.49;102360.16;682761;29;1094;-81
2023/04/04 01:03:17;;;;;;;4.32;3.15;;;;;;;0.11;54.77;102372.84;682896;29;1089;-82
2023/04/04 01:03:38;;;;;;;5.53;3.00;;;;;;;0.04;54.90;102361.03;680312;29;1370;-81
2023/04/04 01:03:59;;;;;;;6.75;3.00;;;;;;;0.07;54.98;102365.56;682776;29;1133;-82
2023/04/04 01:04:21;;;;;;;5.70;3.10;;;;;;;0.07;55.04;102371.63;680217;29;1168;-82
2023/04/04 01:04:41;;;;;;;4.47;3.00;;;;;;;0.03;54.72;102363.50;677593;29;1090;-81
2023/04/04 01:05:02;;;;;;;5.35;3.10;;;;;;;0.03;54.89;102368.63;681960;29;1231;-82
2023/04/04 01:05:23;;;;;;;6.97;3.00;;;;;;;-0.00;54.86;102360.59;683026;29;881;-82
2023/04/04 01:05:44;;;;;;;7.13;2.92;;;;;;;0.03;54.81;102369.50;682944;29;1023;-81
2023/04/04 01:06:07;;;;;;;4.68;2.70;;;;;;;0.03;54.78;102373.75;680124;29;1093;-82
2023/04/04 01:06:29;;;;;;;3.83;2.78;;;;;;;0.00;55.16;102361.53;685497;28;1249;-82
2023/04/04 01:06:50;;;;;;;3.35;2.83;;;;;;;0.10;54.87;102381.25;685344;28;1085;-82
2023/04/04 01:07:11;;;;;;;3.80;3.00;;;;;;;0.03;55.04;102360.91;682973;28;1287;-82
2023/04/04 01:07:34;;;;;;;3.78;3.00;;;;;;;0.04;54.95;102365.28;685655;28;952;-82
2023/04/04 01:07:55;;;;;;;3.58;2.97;;;;;;;0.04;54.95;102367.88;685496;28;1143;-82
2023/04/04 01:08:38;;;;;;;4.50;3.10;;;;;;;0.15;54.89;102385.19;680154;29;1006;-82
2023/04/04 01:08:59;;;;;;;4.65;3.35;;;;;;;0.02;54.77;102359.09;679927;29;1454;-82
2023/04/04 01:09:20;;;;;;;3.45;3.15;;;;;;;0.05;55.05;102369.66;688239;28;1320;-82
2023/04/04 01:09:41;;;;;;;3.38;3.08;;;;;;;-0.03;54.99;102357.00;685418;28;1070;-82
2023/04/04 01:10:04;;;;;;;3.20;2.90;;;;;;;0.01;54.98;102352.13;680154;29;1184;-81
2023/04/04 01:10:28;;;;;;;5.13;2.85;;;;;;;0.02;54.91;102366.78;682884;29;1175;-82
2023/04/04 01:10:49;;;;;;;5.95;3.08;;;;;;;-0.04;55.19;102356.84;688044;28;1961;-81
2023/04/04 01:11:10;;;;;;;6.03;3.17;;;;;;;-0.04;55.35;102360.31;690957;28;1099;-82
2023/04/04 01:11:31;;;;;;;3.63;3.15;;;;;;;0.03;55.34;102368.63;688180;28;1056;-82
2023/04/04 01:11:54;;;;;;;3.75;3.20;;;;;;;-0.08;55.06;102349.63;685033;28;1120;-81
2023/04/04 01:12:15;;;;;;;4.00;3.30;;;;;;;-0.03;55.39;102356.06;680057;29;1227;-82
2023/04/04 01:12:36;;;;;;;4.13;3.22;;;;;;;0.02;55.27;102369.34;682715;29;1145;-81
2023/04/04 01:13:15;;;;;;;5.47;3.10;;;;;;;-0.04;55.39;102362.88;682606;29;772;-82
2023/04/04 01:13:54;;;;;;;5.10;2.70;;;;;;;0.07;54.87;102380.97;685411;28;1125;-82
2023/04/04 01:14:15;;;;;;;3.75;2.70;;;;;;;0.01;55.14;102362.41;680211;29;1849;-82
2023/04/04 01:14:36;;;;;;;3.95;2.80;;;;;;;0.01;55.04;102359.84;682837;29;1312;-81
2023/04/04 01:14:57;;;;;;;3.30;3.00;;;;;;;0.03;54.74;102364.38;685308;28;1240;-81
2023/04/04 01:15:18;;;;;;;3.35;3.05;;;;;;;0.02;54.99;102357.44;685520;28;982;-81
2023/04/04 01:15:39;;;;;;;3.78;3.30;;;;;;;0.03;55.14;102369.50;685358;28;1437;-82
2023/04/04 01:16:01;;;;;;;4.20;3.03;;;;;;;0.04;54.82;102373.00;682830;29;1125;-81
2023/04/04 01:16:23;;;;;;;4.00;2.90;;;;;;;0.01;54.94;102367.53;682840;29;832;-81
2023/04/04 01:16:55;;;;;;;2.97;2.53;;;;;;;-0.03;55.06;102364.69;684981;28;1119;-82
2023/04/04 01:17:22;;;;;;;3.28;2.90;;;;;;;0.09;55.15;102384.59;688138;28;1380;-82
2023/04/04 01:17:43;;;;;;;3.80;3.00;;;;;;;0.04;55.20;102375.56;690831;28;1126;-81
2023/04/04 01:18:05;;;;;;;4.05;2.92;;;;;;;0.03;55.16;102378.88;685395;28;1295;-81
2023/04/04 01:18:27;;;;;;;3.03;2.72;;;;;;;0.10;55.19;102391.53;682972;28;832;-82
2023/04/04 01:18:49;;;;;;;3.30;3.00;;;;;;;-0.00;55.18;102370.88;682735;28;1187;-82
2023/04/04 01:19:19;;;;;;;3.22;3.00;;;;;;;0.01;55.16;102370.09;685564;28;1050;-82
2023/04/04 01:19:48;;;;;;;3.70;3.03;;;;;;;0.00;55.04;102374.34;682635;29;1147;-82
2023/04/04 01:20:19;;;;;;;3.90;3.00;;;;;;;0.01;55.31;102375.25;680115;29;971;-82
2023/04/04 01:21:00;;;;;;;4.13;2.92;;;;;;;-0.04;55.02;102369.66;682681;29;1244;-81
2023/04/04 01:21:22;;;;;;;5.90;3.00;;;;;;;0.00;55.11;102382.06;682784;29;1025;-82
2023/04/04 01:21:45;;;;;;;5.63;2.88;;;;;;;-0.05;55.02;102370.44;690748;28;1133;-82
2023/04/04 01:22:07;;;;;;;3.10;2.80;;;;;;;-0.05;55.12;102361.09;685266;28;1300;-82
2023/04/04 01:22:29;;;;;;;3.47;3.00;;;;;;;-0.05;54.89;102360.16;682896;29;1190;-82
2023/04/04 01:22:51;;;;;;;3.55;3.13;;;;;;;-0.08;55.06;102360.75;682837;29;1148;-83
2023/04/04 01:23:13;;;;;;;4.60;2.90;;;;;;;-0.06;55.53;102368.63;685321;28;1214;-84
2023/04/04 01:23:42;;;;;;;4.72;3.00;;;;;;;-0.09;55.15;102366.66;685503;28;1094;-83
2023/04/04 01:24:07;;;;;;;3.47;3.13;;;;;;;-0.17;55.44;102355.66;685373;28;1066;-84
2023/04/04 01:24:50;;;;;;;7.03;3.17;;;;;;;-0.16;55.57;102353.97;679965;28;1266;-84
2023/04/04 01:25:13;;;;;;;6.00;2.80;;;;;;;-0.17;55.30;102363.38;685464;28;1093;-83
2023/04/04 01:25:37;;;;;;;3.75;2.72;;;;;;;-0.17;55.84;102362.44;685429;28;1267;-84
2023/04/04 01:26:03;;;;;;;4.10;3.00;;;;;;;-0.08;55.61;102373.59;685433;28;1373;-83
2023/04/04 01:26:26;;;;;;;4.35;3.15;;;;;;;-0.14;55.52;102362.72;685500;28;1320;-83
2023/04/04 01:26:49;;;;;;;4.70;3.30;;;;;;;-0.16;55.52;102351.41;682610;29;1147;-83
2023/04/04 01:27:10;;;;;;;5.00;3.30;;;;;;;-0.09;55.27;102370.91;685349;28;1162;-83
2023/04/04 01:27:37;;;;;;;4.55;3.17;;;;;;;-0.19;55.44;102357.16;690621;28;1525;-84
2023/04/04 01:28:03;;;;;;;3.55;3.25;;;;;;;-0.06;55.43;102376.31;685307;28;1150;-84
2023/04/04 01:28:24;;;;;;;3.63;3.33;;;;;;;-0.15;55.44;102355.78;682880;29;1121;-83
2023/04/04 01:28:46;;;;;;;3.40;3.20;;;;;;;-0.18;55.43;102350.38;682662;29;1142;-84
2023/04/04 01:29:07;;;;;;;3.38;3.08;;;;;;;-0.16;55.67;102361.69;685487;28;1120;-83
2023/04/04 01:29:28;;;;;;;3.20;2.90;;;;;;;-0.07;55.73;102379.66;688269;28;838;-84
2023/04/04 01:29:50;;;;;;;3.47;3.03;;;;;;;-0.13;55.60;102367.13;685508;28;981;-83
2023/04/04 01:30:13;;;;;;;4.72;3.25;;;;;;;-0.14;55.56;102367.84;688203;28;993;-83
2023/04/04 01:30:37;;;;;;;5.20;3.50;;;;;;;-0.12;55.40;102357.75;682729;28;1952;-83
2023/04/04 01:31:00;;;;;;;3.65;3.22;;;;;;;-0.15;55.64;102363.50;687971;28;1991;-83
2023/04/04 01:31:36;;;;;;;3.50;3.20;;;;;;;-0.01;55.86;102387.94;688372;28;724;-84
2023/04/04 01:32:12;;;;;;;3.60;3.30;;;;;;;-0.09;55.44;102368.34;685413;28;1081;-84
2023/04/04 01:32:56;;;;;;;4.70;3.30;;;;;;;-0.05;55.51;102366.22;688243;28;1064;-83
2023/04/04 01:33:28;;;;;;;4.32;3.10;;;;;;;-0.07;55.49;102357.44;685381;28;1210;-84
2023/04/04 01:33:58;;;;;;;4.35;3.20;;;;;;;-0.06;55.46;102364.38;685419;28;954;-83
2023/04/04 01:34:31;;;;;;;3.80;3.10;;;;;;;-0.03;55.52;102358.63;682914;28;1216;-83
2023/04/04 01:35:07;;;;;;;4.80;3.25;;;;;;;0.09;55.61;102376.88;682581;29;988;-83
2023/04/04 01:35:53;;;;;;;4.63;3.60;;;;;;;0.06;55.46;102368.91;685616;28;847;-84
2023/04/04 01:36:21;;;;;;;3.47;3.00;;;;;;;0.07;55.36;102378.41;687256;28;1001;-83
2023/04/04 01:36:52;;;;;;;4.72;3.30;;;;;;;0.09;55.51;102382.03;685316;28;1149;-84
2023/04/04 01:37:36;;;;;;;5.28;3.40;;;;;;;0.07;55.37;102381.91;682776;29;1881;-83
2023/04/04 01:38:14;;;;;;;5.78;3.33;;;;;;;0.05;55.46;102375.69;680197;29;1108;-83
2023/04/04 01:38:53;;;;;;;3.80;2.88;;;;;;;-0.09;55.09;102353.81;682785;29;1117;-83
2023/04/04 01:39:17;;;;;;;4.22;3.00;;;;;;;0.04;55.29;102378.13;688074;28;1072;-84
2023/04/04 01:40:07;;;;;;;4.20;3.10;;;;;;;0.04;55.37;102380.69;685494;28;1107;-83
2023/04/04 01:40:36;;;;;;;3.65;3.00;;;;;;;-0.12;55.54;102353.53;671543;29;1345;-83
2023/04/04 01:41:02;;;;;;;3.63;3.00;;;;;;;-0.03;55.54;102364.69;685264;28;1364;-83
2023/04/04 01:41:29;;;;;;;3.83;3.05;;;;;;;-0.08;55.50;102358.19;682948;29;910;-84
2023/04/04 01:41:55;;;;;;;4.88;3.20;;;;;;;-0.04;55.48;102361.97;682666;28;1079;-84
2023/04/04 01:42:18;;;;;;;4.30;3.10;;;;;;;-0.00;55.50;102368.31;682710;28;1112;-82
2023/04/04 01:42:43;;;;;;;4.63;3.08;;;;;;;-0.00;55.46;102368.31;680072;29;1030;-84
2023/04/04 01:43:04;;;;;;;3.65;3.10;;;;;;;-0.09;55.61;102353.81;685302;28;1225;-84
2023/04/04 01:43:29;;;;;;;3.33;3.03;;;;;;;-0.00;55.59;102368.31;685562;28;998;-84
2023/04/04 01:43:51;;;;;;;3.60;3.25;;;;;;;-0.05;55.29;102355.94;680032;29;1274;-83
2023/04/04 01:44:14;;;;;;;3.90;3.50;;;;;;;-0.06;55.70;102359.25;680249;29;930;-83
2023/04/04 01:44:35;;;;;;;4.55;3.28;;;;;;;0.01;55.52;102367.53;680100;29;1128;-84
2023/04/04 01:44:56;;;;;;;3.55;3.10;;;;;;;-0.08;55.28;102358.19;680117;29;1180;-84
2023/04/04 01:45:22;;;;;;;4.50;3.30;;;;;;;-0.11;55.45;102339.03;685537;28;1033;-84
2023/04/04 01:45:44;;;;;;;3.75;3.28;;;;;;;-0.06;55.11;102350.66;682681;29;1763;-83
2023/04/04 01:46:06;;;;;;;3.60;3.30;;;;;;;-0.09;55.42;102343.56;685385;28;1109;-83
2023/04/04 01:46:28;;;;;;;3.33;3.10;;;;;;;0.04;55.48;102370.44;682909;29;1236;-83
2023/04/04 01:46:55;;;;;;;3.55;3.25;;;;;;;-0.02;55.36;102353.66;677367;29;1360;-84
2023/04/04 01:47:15;;;;;;;3.80;3.30;;;;;;;-0.04;55.34;102350.06;685555;28;1107;-84
2023/04/04 01:47:40;;;;;;;4.30;3.30;;;;;;;-0.07;55.56;102344.59;685566;28;1130;-84
2023/04/04 01:48:38;;;;;;;3.72;3.15;;;;;;;0.09;55.46;102371.75;682625;28;1382;-83
2023/04/04 01:49:00;;;;;;;4.88;3.00;;;;;;;-0.08;55.50;102349.63;682677;28;1382;-83
2023/04/04 01:49:25;;;;;;;3.22;3.03;;;;;;;-0.07;55.44;102356.56;683033;28;1240;-83
2023/04/04 01:49:46;;;;;;;3.08;2.88;;;;;;;-0.14;55.53;102344.75;685632;28;1110;-84
2023/04/04 01:50:09;;;;;;;3.20;2.90;;;;;;;-0.08;55.56;102353.06;685657;28;1003;-83
2023/04/04 01:50:30;;;;;;;3.30;3.00;;;;;;;-0.06;55.70;102364.38;685894;28;1104;-83
2023/04/04 01:50:51;;;;;;;3.40;3.10;;;;;;;-0.11;55.63;102357.91;682642;28;1966;-83